createdAt,value
2022-12-15T00:00:40.081Z,-16.80
2022-12-15T00:03:26.418Z,-17.41
2022-12-15T00:06:11.808Z,-16.82
2022-12-15T00:08:56.964Z,-16.83
2022-12-15T00:11:42.731Z,-16.84
2022-12-15T00:14:28.229Z,-16.85
2022-12-15T00:17:14.059Z,-16.86
2022-12-15T00:19:59.490Z,-16.91
2022-12-15T00:22:45.019Z,-16.96
2022-12-15T00:25:30.114Z,-16.87
2022-12-15T00:28:16.248Z,-16.89
2022-12-15T00:31:02.700Z,-16.90
2022-12-15T00:33:48.699Z,-16.89
2022-12-15T00:36:34.262Z,-16.90
2022-12-15T00:39:21.165Z,-16.92
2022-12-15T00:42:08.067Z,-16.92
2022-12-15T00:44:55.562Z,-17.90
2022-12-15T00:47:42.735Z,-16.95
2022-12-15T00:50:28.221Z,-16.97
2022-12-15T00:53:13.811Z,-16.99
2022-12-15T00:55:59.429Z,-16.99
2022-12-15T00:58:45.246Z,-17.11
2022-12-15T01:01:31.096Z,-17.01
2022-12-15T01:04:16.644Z,-17.04
2022-12-15T01:07:02.333Z,-17.06
2022-12-15T01:09:47.752Z,-17.07
2022-12-15T01:12:33.514Z,-17.10
2022-12-15T01:15:19.330Z,-17.12
2022-12-15T01:18:04.546Z,-17.18
2022-12-15T01:20:51.491Z,-17.15
2022-12-15T01:23:38.507Z,-17.18
2022-12-15T01:26:26.780Z,-17.21
2022-12-15T01:29:13.863Z,-17.22
2022-12-15T01:32:00.861Z,-17.34
2022-12-15T01:34:47.907Z,-17.27
2022-12-15T01:37:35.108Z,-17.30
2022-12-15T01:40:21.129Z,-17.42
2022-12-15T01:43:08.241Z,-17.32
2022-12-15T01:46:09.750Z,-17.32
2022-12-15T01:49:08.743Z,-17.35
2022-12-15T01:51:59.750Z,-17.38
2022-12-15T01:54:54.924Z,-17.39
2022-12-15T01:57:47.051Z,-17.58
2022-12-15T02:00:35.094Z,-17.44
2022-12-15T02:03:22.749Z,-17.47
2022-12-15T02:06:09.862Z,-17.57
2022-12-15T02:08:57.800Z,-17.51
2022-12-15T02:12:09.693Z,-17.54
2022-12-15T02:15:31.307Z,-17.56
2022-12-15T02:18:42.308Z,-17.59
2022-12-15T02:21:35.402Z,-17.62
2022-12-15T02:24:33.836Z,-17.64
2022-12-15T02:27:43.106Z,-17.66
2022-12-15T02:30:35.673Z,-17.68
2022-12-15T02:33:35.497Z,-17.74
2022-12-15T02:36:43.756Z,-17.84
2022-12-15T02:39:34.414Z,-17.77
2022-12-15T02:42:21.274Z,-17.79
2022-12-15T02:45:20.397Z,-17.81
2022-12-15T02:48:30.804Z,-17.85
2022-12-15T02:51:24.381Z,-17.87
2022-12-15T02:54:43.329Z,-17.88
2022-12-15T02:57:40.182Z,-17.91
2022-12-15T03:00:30.332Z,-17.92
2022-12-15T03:03:17.399Z,-17.95
2022-12-15T03:06:04.310Z,-18.02
2022-12-15T03:08:51.546Z,-17.97
2022-12-15T03:11:38.760Z,-17.98
2022-12-15T03:14:25.933Z,-17.98
2022-12-15T03:17:14.011Z,-17.98
2022-12-15T03:20:01.068Z,-18.92
2022-12-15T03:22:47.894Z,-18.00
2022-12-15T03:25:35.110Z,-18.05
2022-12-15T03:28:22.461Z,-18.01
2022-12-15T03:31:10.007Z,-18.00
2022-12-15T03:33:57.043Z,-18.02
2022-12-15T03:36:43.915Z,-18.01
2022-12-15T03:39:30.856Z,-18.01
2022-12-15T03:42:17.886Z,-18.02
2022-12-15T03:45:04.935Z,-18.00
2022-12-15T03:47:51.931Z,-18.01
2022-12-15T03:50:41.803Z,-18.00
2022-12-15T03:53:29.478Z,-18.05
2022-12-15T03:56:16.748Z,-17.97
2022-12-15T03:59:03.850Z,-17.97
2022-12-15T04:01:53.452Z,-17.96
2022-12-15T04:04:40.477Z,-17.94
2022-12-15T04:07:27.541Z,-17.98
2022-12-15T04:10:14.562Z,-17.93
2022-12-15T04:13:01.545Z,-17.93
2022-12-15T04:15:49.038Z,-17.92
2022-12-15T04:18:35.952Z,-17.88
2022-12-15T04:21:23.357Z,-18.90
2022-12-15T04:24:08.754Z,-18.24
2022-12-15T04:26:54.323Z,-18.95
2022-12-15T04:29:39.897Z,-17.81
2022-12-15T04:32:25.415Z,-17.80
2022-12-15T04:35:11.181Z,-17.88
2022-12-15T04:37:56.670Z,-17.76
2022-12-15T04:40:42.266Z,-17.75
2022-12-15T04:43:27.886Z,-17.70
2022-12-15T04:46:14.049Z,-17.69
2022-12-15T04:48:59.485Z,-17.67
2022-12-15T04:51:45.277Z,-18.59
2022-12-15T04:54:30.718Z,-17.74
2022-12-15T04:57:16.025Z,-17.64
2022-12-15T05:00:01.550Z,-17.68
2022-12-15T05:02:47.629Z,-17.62
2022-12-15T05:05:35.326Z,-18.32
2022-12-15T05:08:21.074Z,-17.86
2022-12-15T05:11:06.610Z,-17.60
2022-12-15T05:13:52.337Z,-17.60
2022-12-15T05:16:37.979Z,-17.50
2022-12-15T05:19:23.758Z,-17.47
2022-12-15T05:22:09.530Z,-17.43
2022-12-15T05:24:55.070Z,-17.40
2022-12-15T05:27:40.823Z,-17.40
2022-12-15T05:30:26.790Z,-17.34
2022-12-15T05:32:53.705Z,-17.31
2022-12-15T05:35:20.732Z,-17.71
2022-12-15T05:37:47.668Z,-17.27
2022-12-15T05:40:34.662Z,-17.30
2022-12-15T05:43:26.324Z,-17.21
2022-12-15T05:45:53.904Z,-17.19
2022-12-15T05:48:40.997Z,-17.16
2022-12-15T05:51:29.784Z,-17.14
2022-12-15T05:54:16.785Z,-17.10
2022-12-15T05:57:04.425Z,-17.26
2022-12-15T05:59:52.804Z,-17.09
2022-12-15T06:02:39.796Z,-17.00
2022-12-15T06:05:27.571Z,-16.97
2022-12-15T06:08:14.702Z,-16.95
2022-12-15T06:11:01.682Z,-17.46
2022-12-15T06:13:53.284Z,-16.91
2022-12-15T06:16:50.652Z,-16.92
2022-12-15T06:19:27.717Z,-16.93
2022-12-15T06:22:14.914Z,-16.91
2022-12-15T06:28:27.991Z,-17.67
2022-12-15T06:31:16.352Z,-16.81
2022-12-15T06:34:06.546Z,-17.45
2022-12-15T06:36:53.468Z,-16.76
2022-12-15T06:39:40.530Z,-16.72
2022-12-15T06:42:27.369Z,-16.69
2022-12-15T06:45:14.556Z,-17.05
2022-12-15T06:48:01.913Z,-16.64
2022-12-15T06:50:50.243Z,-16.62
2022-12-15T06:53:39.612Z,-16.61
2022-12-15T06:56:34.872Z,-17.09
2022-12-15T06:59:23.708Z,-16.55
2022-12-15T07:02:10.982Z,-16.51
2022-12-15T07:04:57.933Z,-16.47
2022-12-15T07:07:45.841Z,-16.54
2022-12-15T07:10:32.877Z,-17.29
2022-12-15T07:13:20.050Z,-16.37
2022-12-15T07:16:07.045Z,-16.33
2022-12-15T07:18:54.545Z,-16.30
2022-12-15T07:21:41.697Z,-16.28
2022-12-15T07:24:31.188Z,-16.23
2022-12-15T07:27:18.197Z,-16.21
2022-12-15T07:30:05.109Z,-16.34
2022-12-15T07:32:52.012Z,-16.37
2022-12-15T07:35:19.331Z,-16.19
2022-12-15T07:37:46.315Z,-16.18
2022-12-15T07:40:13.438Z,-16.22
2022-12-15T07:42:40.517Z,-16.14
2022-12-15T07:45:07.974Z,-16.25
2022-12-15T07:47:55.499Z,-16.07
2022-12-15T07:50:42.574Z,-16.08
2022-12-15T07:53:09.614Z,-16.04
2022-12-15T07:56:06.769Z,-16.97
2022-12-15T07:58:54.603Z,-16.03
2022-12-15T08:01:41.635Z,-15.97
2022-12-15T08:04:28.831Z,-16.01
2022-12-15T08:07:16.270Z,-15.99
2022-12-15T08:10:03.272Z,-15.99
2022-12-15T08:12:50.299Z,-15.97
2022-12-15T08:15:37.287Z,-15.96
2022-12-15T08:18:25.730Z,-15.94
2022-12-15T08:21:12.641Z,-15.93
2022-12-15T08:23:59.557Z,-16.06
2022-12-15T08:26:50.144Z,-15.89
2022-12-15T08:29:53.082Z,-15.88
2022-12-15T08:32:40.280Z,-15.86
2022-12-15T08:35:55.133Z,-15.84
2022-12-15T08:38:34.290Z,-15.82
2022-12-15T08:41:32.928Z,-15.86
2022-12-15T08:44:21.635Z,-15.85
2022-12-15T08:47:09.134Z,-15.91
2022-12-15T08:49:56.188Z,-15.91
2022-12-15T08:53:00.687Z,-15.92
2022-12-15T08:55:50.342Z,-15.92
2022-12-15T08:58:37.724Z,-15.96
2022-12-15T09:01:27.371Z,-15.97
2022-12-15T09:04:16.454Z,-15.96
2022-12-15T09:07:03.712Z,-15.95
2022-12-15T09:09:50.576Z,-16.43
2022-12-15T09:12:37.680Z,-15.91
2022-12-15T09:15:45.437Z,-15.90
2022-12-15T09:18:32.313Z,-15.87
2022-12-15T09:21:24.143Z,-15.86
2022-12-15T09:24:14.728Z,-15.83
2022-12-15T09:27:04.766Z,-15.93
2022-12-15T09:29:52.053Z,-15.79
2022-12-15T09:32:38.971Z,-15.79
2022-12-15T09:35:26.254Z,-15.91
2022-12-15T09:38:13.150Z,-15.74
2022-12-15T09:41:00.018Z,-15.72
2022-12-15T09:43:48.329Z,-15.69
2022-12-15T09:46:56.214Z,-15.79
2022-12-15T09:50:07.627Z,-15.63
2022-12-15T09:53:23.281Z,-15.61
2022-12-15T09:56:24.731Z,-16.17
2022-12-15T09:59:39.570Z,-15.73
2022-12-15T10:03:08.427Z,-15.55
2022-12-15T10:06:25.966Z,-15.50
2022-12-15T10:09:50.296Z,-15.47
2022-12-15T10:12:55.279Z,-15.44
2022-12-15T10:16:01.300Z,-15.40
2022-12-15T10:19:02.168Z,-15.38
2022-12-15T10:21:51.371Z,-15.34
2022-12-15T10:25:09.126Z,-15.31
2022-12-15T10:28:18.712Z,-15.28
2022-12-15T10:31:17.565Z,-15.24
2022-12-15T10:34:11.801Z,-15.22
2022-12-15T10:37:09.942Z,-15.23
2022-12-15T10:39:59.335Z,-16.04
2022-12-15T10:42:47.176Z,-15.11
2022-12-15T10:46:08.021Z,-15.07
2022-12-15T10:48:56.371Z,-15.06
2022-12-15T10:52:02.704Z,-15.90
2022-12-15T10:55:03.646Z,-15.00
2022-12-15T10:57:54.408Z,-14.97
2022-12-15T11:00:50.757Z,-14.96
2022-12-15T11:03:58.468Z,-15.12
2022-12-15T11:06:48.552Z,-14.89
2022-12-15T11:09:48.550Z,-14.87
2022-12-15T11:12:38.895Z,-14.84
2022-12-15T11:15:51.844Z,-14.80
2022-12-15T11:18:41.647Z,-14.80
2022-12-15T11:21:40.485Z,-14.77
2022-12-15T11:24:34.821Z,-14.73
2022-12-15T11:27:25.839Z,-14.89
2022-12-15T11:30:33.517Z,-14.68
2022-12-15T11:33:21.632Z,-14.65
2022-12-15T11:36:36.423Z,-14.63
2022-12-15T11:39:48.663Z,-14.61
2022-12-15T11:42:41.369Z,-14.59
2022-12-15T11:45:50.269Z,-14.57
2022-12-15T11:48:59.939Z,-14.54
2022-12-15T11:52:11.283Z,-14.52
2022-12-15T11:55:27.669Z,-14.49
2022-12-15T11:58:44.556Z,-14.47
2022-12-15T12:01:52.606Z,-14.65
2022-12-15T12:04:47.476Z,-14.44
2022-12-15T12:08:11.931Z,-14.40
2022-12-15T12:11:21.292Z,-14.38
2022-12-15T12:14:32.644Z,-14.36
2022-12-15T12:17:28.373Z,-14.35
2022-12-15T12:20:19.846Z,-14.33
2022-12-15T12:23:50.258Z,-14.31
2022-12-15T12:26:55.323Z,-14.30
2022-12-15T12:29:58.005Z,-14.29
2022-12-15T12:33:03.571Z,-14.36
2022-12-15T12:36:01.471Z,-14.26
2022-12-15T12:38:56.975Z,-14.25
2022-12-15T12:41:43.708Z,-14.24
2022-12-15T12:44:53.446Z,-14.23
2022-12-15T12:47:46.023Z,-14.22
2022-12-15T12:50:50.546Z,-14.22
2022-12-15T12:54:03.820Z,-14.28
2022-12-15T12:57:03.944Z,-14.22
2022-12-15T12:59:50.819Z,-14.20
2022-12-15T13:02:40.764Z,-14.20
2022-12-15T13:05:45.247Z,-14.19
2022-12-15T13:08:32.279Z,-14.19
2022-12-15T13:11:41.998Z,-14.17
2022-12-15T13:14:21.091Z,-14.17
2022-12-15T13:17:24.787Z,-14.26
2022-12-15T13:20:19.205Z,-14.17
2022-12-15T13:23:06.335Z,-14.18
2022-12-15T13:25:40.296Z,-14.19
2022-12-15T13:28:29.755Z,-14.20
2022-12-15T13:31:41.192Z,-14.19
2022-12-15T13:34:16.809Z,-14.19
2022-12-15T13:36:52.583Z,-14.19
2022-12-15T13:39:50.408Z,-14.19
2022-12-15T13:45:57.783Z,-14.54
2022-12-15T13:48:56.836Z,-14.22
2022-12-15T13:52:03.190Z,-14.23
2022-12-15T13:55:02.372Z,-14.41
2022-12-15T13:57:54.403Z,-14.24
2022-12-15T14:00:41.727Z,-14.27
2022-12-15T14:03:33.287Z,-14.25
2022-12-15T14:06:21.295Z,-14.25
2022-12-15T14:09:08.383Z,-14.25
2022-12-15T14:11:55.908Z,-14.25
2022-12-15T14:14:26.805Z,-14.61
2022-12-15T14:16:58.387Z,-14.54
2022-12-15T14:19:26.049Z,-14.54
2022-12-15T14:22:21.748Z,-14.24
2022-12-15T14:25:57.428Z,-14.26
2022-12-15T14:28:50.589Z,-14.24
2022-12-15T14:31:42.059Z,-14.23
2022-12-15T14:34:43.555Z,-14.29
2022-12-15T14:37:39.049Z,-15.07
2022-12-15T14:40:29.100Z,-14.25
2022-12-15T14:43:16.770Z,-14.26
2022-12-15T14:45:44.140Z,-14.28
2022-12-15T14:51:32.562Z,-14.32
2022-12-15T14:54:19.440Z,-14.33
2022-12-15T14:57:17.047Z,-14.32
2022-12-15T14:59:54.087Z,-14.34
2022-12-15T15:02:48.587Z,-14.58
2022-12-15T15:03:05.640Z,-14.20
2022-12-15T15:05:27.861Z,-14.40
2022-12-15T15:07:56.699Z,-14.41
2022-12-15T15:10:29.509Z,-14.40
2022-12-15T15:12:56.523Z,-14.40
2022-12-15T15:15:46.567Z,-14.42
2022-12-15T15:18:43.858Z,-14.39
2022-12-15T15:21:38.333Z,-14.42
2022-12-15T15:24:30.882Z,-14.42
2022-12-15T15:27:58.134Z,-14.43
2022-12-15T15:30:45.216Z,-14.42
2022-12-15T15:33:33.060Z,-14.42
2022-12-15T15:36:22.091Z,-14.44
2022-12-15T15:39:09.054Z,-15.89
2022-12-15T15:41:55.899Z,-14.45
2022-12-15T15:44:42.782Z,-14.46
2022-12-15T15:47:43.701Z,-15.07
2022-12-15T15:50:37.687Z,-14.47
2022-12-15T15:53:24.646Z,-14.67
2022-12-15T15:55:54.886Z,-14.46
2022-12-15T15:58:41.785Z,-14.46
2022-12-15T16:01:28.941Z,-14.51
2022-12-15T16:04:15.840Z,-14.67
2022-12-15T16:07:03.075Z,-15.00
2022-12-15T16:09:49.997Z,-14.44
2022-12-15T16:13:01.858Z,-14.52
2022-12-15T16:15:53.950Z,-14.51
2022-12-15T16:18:41.090Z,-14.46
2022-12-15T16:21:32.844Z,-14.46
2022-12-15T16:24:30.321Z,-14.47
2022-12-15T16:27:17.222Z,-14.96
2022-12-15T16:30:04.330Z,-14.64
2022-12-15T16:32:51.132Z,-14.49
2022-12-15T16:35:38.571Z,-14.97
2022-12-15T16:38:55.047Z,-14.49
2022-12-15T16:41:42.091Z,-14.49
2022-12-15T16:44:31.428Z,-14.64
2022-12-15T16:47:19.373Z,-14.50
2022-12-15T16:50:06.184Z,-14.52
2022-12-15T16:52:53.276Z,-14.63
2022-12-15T16:55:46.679Z,-14.54
2022-12-15T16:58:36.370Z,-14.62
2022-12-15T17:01:23.832Z,-14.68
2022-12-15T17:04:11.396Z,-14.54
2022-12-15T17:06:58.448Z,-14.54
2022-12-15T17:09:45.986Z,-14.51
2022-12-15T17:12:37.574Z,-14.51
2022-12-15T17:15:36.429Z,-14.51
2022-12-15T17:18:24.429Z,-14.53
2022-12-15T17:21:16.225Z,-14.55
2022-12-15T17:24:10.079Z,-14.63
2022-12-15T17:26:57.454Z,-14.58
2022-12-15T17:29:45.146Z,-14.59
2022-12-15T17:32:33.112Z,-15.48
2022-12-15T17:35:20.429Z,-14.60
2022-12-15T17:38:07.738Z,-14.62
2022-12-15T17:40:55.096Z,-15.46
2022-12-15T17:44:04.330Z,-14.87
2022-12-15T17:46:55.191Z,-14.57
2022-12-15T17:49:42.450Z,-14.79
2022-12-15T17:52:42.703Z,-14.57
2022-12-15T17:55:42.348Z,-14.61
2022-12-15T17:58:41.202Z,-14.58
2022-12-15T18:01:33.261Z,-14.56
2022-12-15T18:04:20.205Z,-14.57
2022-12-15T18:07:07.327Z,-14.55
2022-12-15T18:09:54.207Z,-14.73
2022-12-15T18:12:44.778Z,-14.55
2022-12-15T18:15:41.003Z,-14.53
2022-12-15T18:18:28.005Z,-14.52
2022-12-15T18:21:19.180Z,-14.53
2022-12-15T18:24:06.246Z,-14.55
2022-12-15T18:26:53.164Z,-14.55
2022-12-15T18:29:40.208Z,-14.96
2022-12-15T18:32:29.588Z,-14.54
2022-12-15T18:35:20.170Z,-14.53
2022-12-15T18:38:06.970Z,-14.54
2022-12-15T18:40:53.975Z,-14.53
2022-12-15T18:43:38.847Z,-15.08
2022-12-15T18:46:05.986Z,-14.53
2022-12-15T18:48:37.675Z,-14.94
2022-12-15T18:51:17.092Z,-14.53
2022-12-15T18:54:04.556Z,-14.53
2022-12-15T18:56:51.688Z,-14.60
2022-12-15T18:59:38.855Z,-14.52
2022-12-15T19:02:25.969Z,-14.53
2022-12-15T19:05:13.009Z,-14.71
2022-12-15T19:08:00.044Z,-14.54
2022-12-15T19:10:49.807Z,-14.54
2022-12-15T19:13:38.728Z,-14.69
2022-12-15T19:16:30.356Z,-14.54
2022-12-15T19:19:17.504Z,-14.54
2022-12-15T19:21:44.515Z,-14.54
2022-12-15T19:24:36.908Z,-15.16
2022-12-15T19:27:30.190Z,-14.84
2022-12-15T19:30:17.331Z,-14.56
2022-12-15T19:33:04.265Z,-14.57
2022-12-15T19:35:51.405Z,-15.29
2022-12-15T19:38:43.095Z,-14.58
2022-12-15T19:41:35.624Z,-14.59
2022-12-15T19:44:22.694Z,-14.59
2022-12-15T19:47:09.772Z,-14.71
2022-12-15T19:49:56.754Z,-15.43
2022-12-15T19:52:43.840Z,-14.60
2022-12-15T19:55:38.418Z,-14.60
2022-12-15T19:58:48.332Z,-14.62
2022-12-15T20:01:36.985Z,-14.62
2022-12-15T20:04:24.512Z,-14.63
2022-12-15T20:07:11.516Z,-14.64
2022-12-15T20:09:58.408Z,-14.64
2022-12-15T20:12:45.254Z,-14.65
2022-12-15T20:15:37.401Z,-14.66
2022-12-15T20:18:24.472Z,-14.67
2022-12-15T20:21:11.755Z,-14.67
2022-12-15T20:24:09.408Z,-14.84
2022-12-15T20:26:57.915Z,-14.68
2022-12-15T20:29:50.866Z,-14.70
2022-12-15T20:32:40.395Z,-14.70
2022-12-15T20:35:27.434Z,-14.71
2022-12-15T20:38:14.619Z,-14.73
2022-12-15T20:41:01.958Z,-14.86
2022-12-15T20:43:51.284Z,-14.74
2022-12-15T20:46:42.199Z,-14.75
2022-12-15T20:49:40.929Z,-14.76
2022-12-15T20:52:38.513Z,-14.86
2022-12-15T20:55:26.771Z,-14.78
2022-12-15T20:58:13.851Z,-15.17
2022-12-15T21:01:01.432Z,-14.80
2022-12-15T21:03:52.859Z,-14.79
2022-12-15T21:06:40.578Z,-14.84
2022-12-15T21:09:34.191Z,-14.80
2022-12-15T21:12:21.578Z,-14.82
2022-12-15T21:15:09.695Z,-14.91
2022-12-15T21:18:20.031Z,-14.84
2022-12-15T21:21:07.790Z,-14.84
2022-12-15T21:23:54.961Z,-14.85
2022-12-15T21:26:43.822Z,-14.86
2022-12-15T21:29:35.979Z,-14.88
2022-12-15T21:32:23.022Z,-14.88
2022-12-15T21:35:09.884Z,-14.90
2022-12-15T21:37:57.060Z,-14.91
2022-12-15T21:40:46.123Z,-15.07
2022-12-15T21:43:33.305Z,-15.20
2022-12-15T21:46:26.366Z,-14.93
2022-12-15T21:49:34.307Z,-15.36
2022-12-15T21:52:21.218Z,-14.94
2022-12-15T21:55:08.267Z,-15.00
2022-12-15T21:57:55.043Z,-15.61
2022-12-15T22:00:45.759Z,-14.99
2022-12-15T22:03:33.150Z,-15.49
2022-12-15T22:06:20.232Z,-15.08
2022-12-15T22:09:07.957Z,-15.36
2022-12-15T22:11:54.934Z,-15.02
2022-12-15T22:14:49.374Z,-15.34
2022-12-15T22:17:38.444Z,-15.04
2022-12-15T22:20:43.887Z,-15.08
2022-12-15T22:23:31.002Z,-15.16
2022-12-15T22:26:17.819Z,-15.22
2022-12-15T22:29:05.118Z,-15.41
2022-12-15T22:31:52.055Z,-15.09
2022-12-15T22:34:45.029Z,-15.12
2022-12-15T22:37:32.313Z,-15.18
2022-12-15T22:40:19.526Z,-15.15
2022-12-15T22:43:16.769Z,-15.16
2022-12-15T22:46:03.928Z,-15.17
2022-12-15T22:48:54.716Z,-15.18
2022-12-15T22:51:42.119Z,-15.70
2022-12-15T22:54:55.167Z,-15.20
2022-12-15T22:57:48.959Z,-15.20
2022-12-15T23:00:36.498Z,-15.22
2022-12-15T23:07:07.876Z,-15.24
2022-12-15T23:09:54.674Z,-15.25
2022-12-15T23:12:41.735Z,-15.43
2022-12-15T23:15:27.982Z,-15.28
2022-12-15T23:18:14.895Z,-15.28
2022-12-15T23:21:01.915Z,-15.26
2022-12-15T23:23:49.106Z,-15.34
2022-12-15T23:26:37.381Z,-15.24
2022-12-15T23:29:24.549Z,-15.22
2022-12-15T23:32:11.413Z,-15.20
2022-12-15T23:34:58.471Z,-15.16
2022-12-15T23:37:45.318Z,-15.94
2022-12-15T23:40:32.972Z,-15.05
2022-12-15T23:43:19.758Z,-15.33
2022-12-15T23:46:15.053Z,-15.00
2022-12-15T23:49:03.304Z,-14.90
2022-12-15T23:51:50.408Z,-14.83
2022-12-15T23:54:37.354Z,-14.79
2022-12-15T23:57:24.531Z,-14.72
